sensor_id;sensor_type;location;lat;lon;timestamp;temperature;humidity
78898;DHT22;70344;44.736;37.800;2023-07-31T00:00:45;24.67;60.29
78898;DHT22;70344;44.736;37.800;2023-07-31T00:01:48;24.66;60.38
78898;DHT22;70344;44.736;37.800;2023-07-31T00:02:56;24.67;60.16
78898;DHT22;70344;44.736;37.800;2023-07-31T00:04:04;24.69;60.35
78898;DHT22;70344;44.736;37.800;2023-07-31T00:05:11;24.66;60.21
78898;DHT22;70344;44.736;37.800;2023-07-31T00:06:17;24.67;60.01
78898;DHT22;70344;44.736;37.800;2023-07-31T00:07:27;24.66;59.88
78898;DHT22;70344;44.736;37.800;2023-07-31T00:08:29;24.67;59.74
78898;DHT22;70344;44.736;37.800;2023-07-31T00:09:36;24.67;59.88
78898;DHT22;70344;44.736;37.800;2023-07-31T00:10:44;24.69;59.88
78898;DHT22;70344;44.736;37.800;2023-07-31T00:11:48;24.70;59.90
78898;DHT22;70344;44.736;37.800;2023-07-31T00:12:52;24.70;59.94
78898;DHT22;70344;44.736;37.800;2023-07-31T00:13:55;24.70;59.95
78898;DHT22;70344;44.736;37.800;2023-07-31T00:15:00;24.69;59.42
78898;DHT22;70344;44.736;37.800;2023-07-31T00:16:05;24.69;59.90
78898;DHT22;70344;44.736;37.800;2023-07-31T00:17:09;24.69;60.18
78898;DHT22;70344;44.736;37.800;2023-07-31T00:18:16;24.64;59.99
78898;DHT22;70344;44.736;37.800;2023-07-31T00:19:24;24.67;60.54
78898;DHT22;70344;44.736;37.800;2023-07-31T00:20:28;24.66;60.41
78898;DHT22;70344;44.736;37.800;2023-07-31T00:21:35;24.64;60.22
78898;DHT22;70344;44.736;37.800;2023-07-31T00:22:39;24.62;60.21
78898;DHT22;70344;44.736;37.800;2023-07-31T00:23:48;24.62;60.54
78898;DHT22;70344;44.736;37.800;2023-07-31T00:24:57;24.62;60.22
78898;DHT22;70344;44.736;37.800;2023-07-31T00:26:01;24.63;60.54
78898;DHT22;70344;44.736;37.800;2023-07-31T00:27:04;24.60;60.53
78898;DHT22;70344;44.736;37.800;2023-07-31T00:28:07;24.63;60.13
78898;DHT22;70344;44.736;37.800;2023-07-31T00:29:14;24.59;60.27
78898;DHT22;70344;44.736;37.800;2023-07-31T00:30:16;24.59;60.37
78898;DHT22;70344;44.736;37.800;2023-07-31T00:31:26;24.60;60.03
78898;DHT22;70344;44.736;37.800;2023-07-31T00:32:31;24.57;60.08
78898;DHT22;70344;44.736;37.800;2023-07-31T00:33:36;24.59;59.99
78898;DHT22;70344;44.736;37.800;2023-07-31T00:34:43;24.62;60.22
78898;DHT22;70344;44.736;37.800;2023-07-31T00:35:50;24.57;59.58
78898;DHT22;70344;44.736;37.800;2023-07-31T00:36:56;24.62;59.69
78898;DHT22;70344;44.736;37.800;2023-07-31T00:38:01;24.62;59.75
78898;DHT22;70344;44.736;37.800;2023-07-31T00:39:08;24.56;60.16
78898;DHT22;70344;44.736;37.800;2023-07-31T00:40:13;24.57;60.37
78898;DHT22;70344;44.736;37.800;2023-07-31T00:41:15;24.57;60.63
78898;DHT22;70344;44.736;37.800;2023-07-31T00:42:20;24.59;60.51
78898;DHT22;70344;44.736;37.800;2023-07-31T00:43:27;24.57;61.03
78898;DHT22;70344;44.736;37.800;2023-07-31T00:44:35;24.57;61.04
78898;DHT22;70344;44.736;37.800;2023-07-31T00:45:37;24.60;61.09
78898;DHT22;70344;44.736;37.800;2023-07-31T00:46:39;24.63;61.13
78898;DHT22;70344;44.736;37.800;2023-07-31T00:47:42;24.64;61.40
78898;DHT22;70344;44.736;37.800;2023-07-31T00:48:52;24.63;61.57
78898;DHT22;70344;44.736;37.800;2023-07-31T00:49:57;24.60;61.81
78898;DHT22;70344;44.736;37.800;2023-07-31T00:51:02;24.59;61.60
78898;DHT22;70344;44.736;37.800;2023-07-31T00:52:14;24.60;61.32
78898;DHT22;70344;44.736;37.800;2023-07-31T00:53:21;24.60;59.80
78898;DHT22;70344;44.736;37.800;2023-07-31T00:54:33;24.60;59.98
78898;DHT22;70344;44.736;37.800;2023-07-31T00:55:36;24.60;59.67
78898;DHT22;70344;44.736;37.800;2023-07-31T00:56:44;24.62;59.01
78898;DHT22;70344;44.736;37.800;2023-07-31T00:57:52;24.60;58.32
78898;DHT22;70344;44.736;37.800;2023-07-31T00:58:55;24.60;56.50
78898;DHT22;70344;44.736;37.800;2023-07-31T01:00:05;24.66;56.87
78898;DHT22;70344;44.736;37.800;2023-07-31T01:01:10;24.67;56.29
78898;DHT22;70344;44.736;37.800;2023-07-31T01:02:17;24.67;55.90
78898;DHT22;70344;44.736;37.800;2023-07-31T01:03:19;24.69;55.31
78898;DHT22;70344;44.736;37.800;2023-07-31T01:04:25;24.67;55.55
78898;DHT22;70344;44.736;37.800;2023-07-31T01:07:11;24.72;54.28
78898;DHT22;70344;44.736;37.800;2023-07-31T01:08:24;24.76;54.57
78898;DHT22;70344;44.736;37.800;2023-07-31T01:09:43;24.79;54.11
78898;DHT22;70344;44.736;37.800;2023-07-31T01:10:55;24.79;53.44
78898;DHT22;70344;44.736;37.800;2023-07-31T01:12:04;24.80;53.81
78898;DHT22;70344;44.736;37.800;2023-07-31T01:13:06;24.84;53.54
78898;DHT22;70344;44.736;37.800;2023-07-31T01:14:15;24.83;53.80
78898;DHT22;70344;44.736;37.800;2023-07-31T01:15:23;24.84;53.80
78898;DHT22;70344;44.736;37.800;2023-07-31T01:16:25;24.84;53.28
78898;DHT22;70344;44.736;37.800;2023-07-31T01:17:30;24.88;53.10
78898;DHT22;70344;44.736;37.800;2023-07-31T01:18:33;24.87;53.10
78898;DHT22;70344;44.736;37.800;2023-07-31T01:19:40;24.90;53.23
78898;DHT22;70344;44.736;37.800;2023-07-31T01:20:55;24.88;53.57
78898;DHT22;70344;44.736;37.800;2023-07-31T01:23:22;24.90;53.81
78898;DHT22;70344;44.736;37.800;2023-07-31T01:24:39;24.88;53.73
78898;DHT22;70344;44.736;37.800;2023-07-31T01:27:34;24.87;53.81
78898;DHT22;70344;44.736;37.800;2023-07-31T01:29:51;24.87;53.96
78898;DHT22;70344;44.736;37.800;2023-07-31T01:31:01;24.86;54.02
78898;DHT22;70344;44.736;37.800;2023-07-31T01:32:10;24.86;54.08
78898;DHT22;70344;44.736;37.800;2023-07-31T01:33:18;24.86;54.01
78898;DHT22;70344;44.736;37.800;2023-07-31T01:34:22;24.86;54.40
78898;DHT22;70344;44.736;37.800;2023-07-31T01:35:29;24.84;54.25
78898;DHT22;70344;44.736;37.800;2023-07-31T01:36:32;24.83;54.25
78898;DHT22;70344;44.736;37.800;2023-07-31T01:37:35;24.84;54.30
78898;DHT22;70344;44.736;37.800;2023-07-31T01:38:39;24.87;54.11
78898;DHT22;70344;44.736;37.800;2023-07-31T01:39:44;24.84;54.14
78898;DHT22;70344;44.736;37.800;2023-07-31T01:40:52;24.81;54.53
78898;DHT22;70344;44.736;37.800;2023-07-31T01:41:55;24.84;54.33
78898;DHT22;70344;44.736;37.800;2023-07-31T01:42:57;24.80;54.31
78898;DHT22;70344;44.736;37.800;2023-07-31T01:44:07;24.80;54.65
78898;DHT22;70344;44.736;37.800;2023-07-31T01:45:13;24.80;54.65
78898;DHT22;70344;44.736;37.800;2023-07-31T01:46:18;24.74;54.52
78898;DHT22;70344;44.736;37.800;2023-07-31T01:47:23;24.74;54.25
78898;DHT22;70344;44.736;37.800;2023-07-31T01:48:30;24.76;54.02
78898;DHT22;70344;44.736;37.800;2023-07-31T01:49:39;24.74;54.21
78898;DHT22;70344;44.736;37.800;2023-07-31T01:50:42;24.74;53.89
78898;DHT22;70344;44.736;37.800;2023-07-31T01:51:55;24.77;54.06
78898;DHT22;70344;44.736;37.800;2023-07-31T01:53:02;24.76;53.98
78898;DHT22;70344;44.736;37.800;2023-07-31T01:54:05;24.76;53.92
78898;DHT22;70344;44.736;37.800;2023-07-31T01:55:08;24.76;54.29
78898;DHT22;70344;44.736;37.800;2023-07-31T01:56:10;24.72;53.92
78898;DHT22;70344;44.736;37.800;2023-07-31T01:57:14;24.74;53.91
78898;DHT22;70344;44.736;37.800;2023-07-31T01:58:17;24.76;53.96
78898;DHT22;70344;44.736;37.800;2023-07-31T01:59:24;24.73;54.00
78898;DHT22;70344;44.736;37.800;2023-07-31T02:00:29;24.72;53.75
78898;DHT22;70344;44.736;37.800;2023-07-31T02:01:32;24.74;53.68
78898;DHT22;70344;44.736;37.800;2023-07-31T02:02:41;24.72;53.72
78898;DHT22;70344;44.736;37.800;2023-07-31T02:03:43;24.73;53.58
78898;DHT22;70344;44.736;37.800;2023-07-31T02:04:55;24.72;53.37
78898;DHT22;70344;44.736;37.800;2023-07-31T02:06:01;24.72;53.07
78898;DHT22;70344;44.736;37.800;2023-07-31T02:07:12;24.72;53.21
78898;DHT22;70344;44.736;37.800;2023-07-31T02:08:16;24.72;53.08
78898;DHT22;70344;44.736;37.800;2023-07-31T02:09:18;24.74;53.12
78898;DHT22;70344;44.736;37.800;2023-07-31T02:10:21;24.72;52.79
78898;DHT22;70344;44.736;37.800;2023-07-31T02:11:26;24.70;52.87
78898;DHT22;70344;44.736;37.800;2023-07-31T02:12:28;24.69;53.15
78898;DHT22;70344;44.736;37.800;2023-07-31T02:13:35;24.69;52.82
78898;DHT22;70344;44.736;37.800;2023-07-31T02:14:43;24.69;52.80
78898;DHT22;70344;44.736;37.800;2023-07-31T02:15:46;24.67;53.18
78898;DHT22;70344;44.736;37.800;2023-07-31T02:16:49;24.73;52.87
78898;DHT22;70344;44.736;37.800;2023-07-31T02:17:51;24.69;53.22
78898;DHT22;70344;44.736;37.800;2023-07-31T02:18:58;24.70;53.19
78898;DHT22;70344;44.736;37.800;2023-07-31T02:20:04;24.70;53.57
78898;DHT22;70344;44.736;37.800;2023-07-31T02:21:07;24.70;53.52
78898;DHT22;70344;44.736;37.800;2023-07-31T02:22:15;24.70;53.70
78898;DHT22;70344;44.736;37.800;2023-07-31T02:23:26;24.70;53.68
78898;DHT22;70344;44.736;37.800;2023-07-31T02:24:34;24.69;53.83
78898;DHT22;70344;44.736;37.800;2023-07-31T02:25:38;24.70;53.68
78898;DHT22;70344;44.736;37.800;2023-07-31T02:26:40;24.67;53.83
78898;DHT22;70344;44.736;37.800;2023-07-31T02:27:44;24.70;53.98
78898;DHT22;70344;44.736;37.800;2023-07-31T02:28:52;24.69;53.72
78898;DHT22;70344;44.736;37.800;2023-07-31T02:29:55;24.69;53.78
78898;DHT22;70344;44.736;37.800;2023-07-31T02:30:59;24.70;53.84
78898;DHT22;70344;44.736;37.800;2023-07-31T02:32:13;24.66;54.14
78898;DHT22;70344;44.736;37.800;2023-07-31T02:33:18;24.67;54.04
78898;DHT22;70344;44.736;37.800;2023-07-31T02:34:27;24.66;54.06
78898;DHT22;70344;44.736;37.800;2023-07-31T02:35:34;24.66;54.00
78898;DHT22;70344;44.736;37.800;2023-07-31T02:36:39;24.66;53.84
78898;DHT22;70344;44.736;37.800;2023-07-31T02:37:43;24.63;53.76
78898;DHT22;70344;44.736;37.800;2023-07-31T02:38:48;24.66;53.50
78898;DHT22;70344;44.736;37.800;2023-07-31T02:39:50;24.66;53.65
78898;DHT22;70344;44.736;37.800;2023-07-31T02:40:58;24.66;53.77
78898;DHT22;70344;44.736;37.800;2023-07-31T02:42:03;24.64;53.66
78898;DHT22;70344;44.736;37.800;2023-07-31T02:43:10;24.64;53.93
78898;DHT22;70344;44.736;37.800;2023-07-31T02:44:13;24.63;53.98
78898;DHT22;70344;44.736;37.800;2023-07-31T02:45:21;24.64;53.67
78898;DHT22;70344;44.736;37.800;2023-07-31T02:46:28;24.64;53.30
78898;DHT22;70344;44.736;37.800;2023-07-31T02:47:36;24.66;53.26
78898;DHT22;70344;44.736;37.800;2023-07-31T02:48:38;24.66;53.41
78898;DHT22;70344;44.736;37.800;2023-07-31T02:49:40;24.70;53.41
78898;DHT22;70344;44.736;37.800;2023-07-31T02:50:47;24.70;53.36
78898;DHT22;70344;44.736;37.800;2023-07-31T02:51:59;24.72;53.57
78898;DHT22;70344;44.736;37.800;2023-07-31T02:53:02;24.66;53.74
78898;DHT22;70344;44.736;37.800;2023-07-31T02:54:13;24.69;53.71
78898;DHT22;70344;44.736;37.800;2023-07-31T02:55:22;24.67;53.82
78898;DHT22;70344;44.736;37.800;2023-07-31T02:56:25;24.72;53.90
78898;DHT22;70344;44.736;37.800;2023-07-31T02:57:31;24.66;53.61
78898;DHT22;70344;44.736;37.800;2023-07-31T02:58:38;24.66;53.97
78898;DHT22;70344;44.736;37.800;2023-07-31T02:59:40;24.64;54.09
78898;DHT22;70344;44.736;37.800;2023-07-31T03:00:46;24.66;53.62
78898;DHT22;70344;44.736;37.800;2023-07-31T03:01:53;24.66;53.47
78898;DHT22;70344;44.736;37.800;2023-07-31T03:02:58;24.70;53.56
78898;DHT22;70344;44.736;37.800;2023-07-31T03:04:03;24.69;53.92
78898;DHT22;70344;44.736;37.800;2023-07-31T03:05:05;24.70;53.87
78898;DHT22;70344;44.736;37.800;2023-07-31T03:06:09;24.69;53.22
78898;DHT22;70344;44.736;37.800;2023-07-31T03:07:13;24.67;54.26
78898;DHT22;70344;44.736;37.800;2023-07-31T03:08:26;24.66;53.93
78898;DHT22;70344;44.736;37.800;2023-07-31T03:09:33;24.70;54.75
78898;DHT22;70344;44.736;37.800;2023-07-31T03:10:41;24.64;54.68
78898;DHT22;70344;44.736;37.800;2023-07-31T03:11:50;24.67;55.05
78898;DHT22;70344;44.736;37.800;2023-07-31T03:12:56;24.64;54.44
78898;DHT22;70344;44.736;37.800;2023-07-31T03:14:02;24.67;54.37
78898;DHT22;70344;44.736;37.800;2023-07-31T03:15:09;24.69;54.43
78898;DHT22;70344;44.736;37.800;2023-07-31T03:16:14;24.67;55.22
78898;DHT22;70344;44.736;37.800;2023-07-31T03:17:21;24.67;55.58
78898;DHT22;70344;44.736;37.800;2023-07-31T03:18:29;24.66;54.91
78898;DHT22;70344;44.736;37.800;2023-07-31T03:19:35;24.69;55.05
78898;DHT22;70344;44.736;37.800;2023-07-31T03:20:42;24.67;55.26
78898;DHT22;70344;44.736;37.800;2023-07-31T03:21:46;24.69;54.95
78898;DHT22;70344;44.736;37.800;2023-07-31T03:22:51;24.69;54.88
78898;DHT22;70344;44.736;37.800;2023-07-31T03:23:56;24.73;55.12
78898;DHT22;70344;44.736;37.800;2023-07-31T03:25:02;24.74;55.26
78898;DHT22;70344;44.736;37.800;2023-07-31T03:26:11;24.74;55.69
78898;DHT22;70344;44.736;37.800;2023-07-31T03:27:13;24.72;56.17
78898;DHT22;70344;44.736;37.800;2023-07-31T03:28:19;24.70;54.24
78898;DHT22;70344;44.736;37.800;2023-07-31T03:29:29;24.77;54.06
78898;DHT22;70344;44.736;37.800;2023-07-31T03:30:39;24.77;53.97
78898;DHT22;70344;44.736;37.800;2023-07-31T03:31:47;24.83;54.12
78898;DHT22;70344;44.736;37.800;2023-07-31T03:32:52;24.83;53.43
78898;DHT22;70344;44.736;37.800;2023-07-31T03:33:59;24.84;53.62
78898;DHT22;70344;44.736;37.800;2023-07-31T03:35:16;24.87;54.14
78898;DHT22;70344;44.736;37.800;2023-07-31T03:36:21;24.91;54.75
78898;DHT22;70344;44.736;37.800;2023-07-31T03:37:26;24.94;55.18
78898;DHT22;70344;44.736;37.800;2023-07-31T03:38:37;24.87;54.11
78898;DHT22;70344;44.736;37.800;2023-07-31T03:39:42;24.91;54.78
78898;DHT22;70344;44.736;37.800;2023-07-31T03:40:49;24.90;54.44
78898;DHT22;70344;44.736;37.800;2023-07-31T03:41:54;24.88;54.47
78898;DHT22;70344;44.736;37.800;2023-07-31T03:42:59;24.91;53.82
78898;DHT22;70344;44.736;37.800;2023-07-31T03:44:15;24.95;53.83
78898;DHT22;70344;44.736;37.800;2023-07-31T03:45:19;25.01;53.18
78898;DHT22;70344;44.736;37.800;2023-07-31T03:46:26;25.04;53.78
78898;DHT22;70344;44.736;37.800;2023-07-31T03:47:31;25.07;53.34
78898;DHT22;70344;44.736;37.800;2023-07-31T03:48:33;25.11;53.24
78898;DHT22;70344;44.736;37.800;2023-07-31T03:49:35;25.10;53.31
78898;DHT22;70344;44.736;37.800;2023-07-31T03:50:49;25.12;53.36
78898;DHT22;70344;44.736;37.800;2023-07-31T03:51:54;25.12;52.86
78898;DHT22;70344;44.736;37.800;2023-07-31T03:53:03;25.15;53.00
78898;DHT22;70344;44.736;37.800;2023-07-31T03:54:12;25.19;52.53
78898;DHT22;70344;44.736;37.800;2023-07-31T03:55:19;25.21;52.16
78898;DHT22;70344;44.736;37.800;2023-07-31T03:56:22;25.25;52.61
78898;DHT22;70344;44.736;37.800;2023-07-31T03:57:31;25.28;51.95
78898;DHT22;70344;44.736;37.800;2023-07-31T03:58:37;25.29;51.60
78898;DHT22;70344;44.736;37.800;2023-07-31T03:59:45;25.36;51.89
78898;DHT22;70344;44.736;37.800;2023-07-31T04:00:53;25.38;51.46
78898;DHT22;70344;44.736;37.800;2023-07-31T04:01:57;25.39;51.82
78898;DHT22;70344;44.736;37.800;2023-07-31T04:03:04;25.42;52.00
78898;DHT22;70344;44.736;37.800;2023-07-31T04:04:13;25.45;52.06
78898;DHT22;70344;44.736;37.800;2023-07-31T04:05:16;25.47;51.57
78898;DHT22;70344;44.736;37.800;2023-07-31T04:06:21;25.47;51.66
78898;DHT22;70344;44.736;37.800;2023-07-31T04:07:26;25.53;51.72
78898;DHT22;70344;44.736;37.800;2023-07-31T04:08:30;25.54;51.61
78898;DHT22;70344;44.736;37.800;2023-07-31T04:09:35;25.60;51.07
78898;DHT22;70344;44.736;37.800;2023-07-31T04:10:37;25.62;50.97
78898;DHT22;70344;44.736;37.800;2023-07-31T04:11:44;25.65;51.36
78898;DHT22;70344;44.736;37.800;2023-07-31T04:12:48;25.67;51.49
78898;DHT22;70344;44.736;37.800;2023-07-31T04:13:50;25.69;52.15
78898;DHT22;70344;44.736;37.800;2023-07-31T04:15:03;25.70;51.81
78898;DHT22;70344;44.736;37.800;2023-07-31T04:16:06;25.73;52.30
78898;DHT22;70344;44.736;37.800;2023-07-31T04:17:10;25.74;52.20
78898;DHT22;70344;44.736;37.800;2023-07-31T04:18:15;25.77;51.97
78898;DHT22;70344;44.736;37.800;2023-07-31T04:19:22;25.78;51.53
78898;DHT22;70344;44.736;37.800;2023-07-31T04:20:27;25.81;51.04
78898;DHT22;70344;44.736;37.800;2023-07-31T04:21:32;25.83;51.18
78898;DHT22;70344;44.736;37.800;2023-07-31T04:22:34;25.88;51.58
78898;DHT22;70344;44.736;37.800;2023-07-31T04:23:40;25.93;50.80
78898;DHT22;70344;44.736;37.800;2023-07-31T04:24:46;25.98;50.94
78898;DHT22;70344;44.736;37.800;2023-07-31T04:25:53;26.01;50.36
78898;DHT22;70344;44.736;37.800;2023-07-31T04:26:58;26.04;50.26
78898;DHT22;70344;44.736;37.800;2023-07-31T04:28:02;26.09;50.41
78898;DHT22;70344;44.736;37.800;2023-07-31T04:29:04;26.14;49.78
78898;DHT22;70344;44.736;37.800;2023-07-31T04:30:09;26.17;49.73
78898;DHT22;70344;44.736;37.800;2023-07-31T04:31:14;26.24;49.11
78898;DHT22;70344;44.736;37.800;2023-07-31T04:32:21;26.29;49.14
78898;DHT22;70344;44.736;37.800;2023-07-31T04:33:26;26.32;48.79
78898;DHT22;70344;44.736;37.800;2023-07-31T04:34:35;26.37;48.83
78898;DHT22;70344;44.736;37.800;2023-07-31T04:35:40;26.40;48.63
78898;DHT22;70344;44.736;37.800;2023-07-31T04:36:44;26.43;48.91
78898;DHT22;70344;44.736;37.800;2023-07-31T04:37:51;26.49;48.61
78898;DHT22;70344;44.736;37.800;2023-07-31T04:38:59;26.54;48.89
78898;DHT22;70344;44.736;37.800;2023-07-31T04:40:06;26.59;48.37
78898;DHT22;70344;44.736;37.800;2023-07-31T04:41:18;26.64;48.43
78898;DHT22;70344;44.736;37.800;2023-07-31T04:42:26;26.73;48.30
78898;DHT22;70344;44.736;37.800;2023-07-31T04:43:30;26.73;48.32
78898;DHT22;70344;44.736;37.800;2023-07-31T04:44:35;26.78;48.66
78898;DHT22;70344;44.736;37.800;2023-07-31T04:45:42;26.84;48.39
78898;DHT22;70344;44.736;37.800;2023-07-31T04:46:52;26.88;48.38
78898;DHT22;70344;44.736;37.800;2023-07-31T04:47:58;26.94;48.41
78898;DHT22;70344;44.736;37.800;2023-07-31T04:49:01;26.98;48.46
78898;DHT22;70344;44.736;37.800;2023-07-31T04:50:05;27.05;47.98
78898;DHT22;70344;44.736;37.800;2023-07-31T04:51:08;27.05;48.28
78898;DHT22;70344;44.736;37.800;2023-07-31T04:52:11;27.13;47.82
78898;DHT22;70344;44.736;37.800;2023-07-31T04:53:13;27.22;47.45
78898;DHT22;70344;44.736;37.800;2023-07-31T04:54:20;27.30;47.66
78898;DHT22;70344;44.736;37.800;2023-07-31T04:55:24;27.40;47.36
78898;DHT22;70344;44.736;37.800;2023-07-31T04:56:26;27.51;47.25
78898;DHT22;70344;44.736;37.800;2023-07-31T04:57:31;27.56;47.10
78898;DHT22;70344;44.736;37.800;2023-07-31T04:58:39;27.64;46.77
78898;DHT22;70344;44.736;37.800;2023-07-31T04:59:43;27.73;46.49
78898;DHT22;70344;44.736;37.800;2023-07-31T05:00:45;27.82;46.51
78898;DHT22;70344;44.736;37.800;2023-07-31T05:01:49;27.95;46.50
78898;DHT22;70344;44.736;37.800;2023-07-31T05:02:54;28.04;46.33
78898;DHT22;70344;44.736;37.800;2023-07-31T05:04:01;28.10;45.65
78898;DHT22;70344;44.736;37.800;2023-07-31T05:05:04;28.17;45.57
78898;DHT22;70344;44.736;37.800;2023-07-31T05:06:11;28.27;45.35
78898;DHT22;70344;44.736;37.800;2023-07-31T05:07:15;28.37;45.05
78898;DHT22;70344;44.736;37.800;2023-07-31T05:08:23;28.47;44.95
78898;DHT22;70344;44.736;37.800;2023-07-31T05:09:29;28.56;44.88
78898;DHT22;70344;44.736;37.800;2023-07-31T05:10:34;28.65;44.83
78898;DHT22;70344;44.736;37.800;2023-07-31T05:11:38;28.69;44.26
78898;DHT22;70344;44.736;37.800;2023-07-31T05:12:42;28.77;44.03
78898;DHT22;70344;44.736;37.800;2023-07-31T05:13:53;28.78;43.85
78898;DHT22;70344;44.736;37.800;2023-07-31T05:14:56;28.87;44.55
78898;DHT22;70344;44.736;37.800;2023-07-31T05:16:02;28.96;44.06
78898;DHT22;70344;44.736;37.800;2023-07-31T05:17:05;29.05;43.72
78898;DHT22;70344;44.736;37.800;2023-07-31T05:18:16;29.08;44.29
78898;DHT22;70344;44.736;37.800;2023-07-31T05:19:23;29.15;43.83
78898;DHT22;70344;44.736;37.800;2023-07-31T05:20:33;29.18;43.56
78898;DHT22;70344;44.736;37.800;2023-07-31T05:21:35;29.20;43.25
78898;DHT22;70344;44.736;37.800;2023-07-31T05:22:39;29.22;43.09
78898;DHT22;70344;44.736;37.800;2023-07-31T05:23:44;29.30;43.52
78898;DHT22;70344;44.736;37.800;2023-07-31T05:24:47;29.40;42.99
78898;DHT22;70344;44.736;37.800;2023-07-31T05:25:52;29.49;42.93
78898;DHT22;70344;44.736;37.800;2023-07-31T05:26:54;29.53;42.31
78898;DHT22;70344;44.736;37.800;2023-07-31T05:27:58;29.55;41.96
78898;DHT22;70344;44.736;37.800;2023-07-31T05:29:06;29.58;42.14
78898;DHT22;70344;44.736;37.800;2023-07-31T05:30:10;29.67;42.68
78898;DHT22;70344;44.736;37.800;2023-07-31T05:31:12;29.78;41.79
78898;DHT22;70344;44.736;37.800;2023-07-31T05:32:14;29.82;41.85
78898;DHT22;70344;44.736;37.800;2023-07-31T05:33:19;29.84;42.63
78898;DHT22;70344;44.736;37.800;2023-07-31T05:34:24;29.90;42.34
78898;DHT22;70344;44.736;37.800;2023-07-31T05:35:30;30.05;43.35
78898;DHT22;70344;44.736;37.800;2023-07-31T05:36:35;30.17;41.52
78898;DHT22;70344;44.736;37.800;2023-07-31T05:37:40;30.24;42.03
78898;DHT22;70344;44.736;37.800;2023-07-31T05:38:46;30.31;40.89
78898;DHT22;70344;44.736;37.800;2023-07-31T05:39:55;30.37;40.71
78898;DHT22;70344;44.736;37.800;2023-07-31T05:40:57;30.45;40.97
78898;DHT22;70344;44.736;37.800;2023-07-31T05:41:59;30.54;40.28
78898;DHT22;70344;44.736;37.800;2023-07-31T05:43:01;30.56;40.63
78898;DHT22;70344;44.736;37.800;2023-07-31T05:44:03;30.65;40.58
78898;DHT22;70344;44.736;37.800;2023-07-31T05:45:09;30.69;40.03
78898;DHT22;70344;44.736;37.800;2023-07-31T05:46:11;30.67;39.56
78898;DHT22;70344;44.736;37.800;2023-07-31T05:47:13;30.68;40.40
78898;DHT22;70344;44.736;37.800;2023-07-31T05:48:21;30.76;39.92
78898;DHT22;70344;44.736;37.800;2023-07-31T05:49:28;30.83;40.30
78898;DHT22;70344;44.736;37.800;2023-07-31T05:50:30;30.82;39.87
78898;DHT22;70344;44.736;37.800;2023-07-31T05:51:35;30.89;40.26
78898;DHT22;70344;44.736;37.800;2023-07-31T05:52:42;30.99;40.06
78898;DHT22;70344;44.736;37.800;2023-07-31T05:53:44;31.00;39.45
78898;DHT22;70344;44.736;37.800;2023-07-31T05:54:46;30.99;39.93
78898;DHT22;70344;44.736;37.800;2023-07-31T05:55:54;31.04;40.60
78898;DHT22;70344;44.736;37.800;2023-07-31T05:56:59;31.16;39.99
78898;DHT22;70344;44.736;37.800;2023-07-31T05:58:01;31.24;40.84
78898;DHT22;70344;44.736;37.800;2023-07-31T05:59:03;31.37;39.74
78898;DHT22;70344;44.736;37.800;2023-07-31T06:00:09;31.44;40.00
78898;DHT22;70344;44.736;37.800;2023-07-31T06:01:13;31.54;39.90
78898;DHT22;70344;44.736;37.800;2023-07-31T06:02:19;31.64;39.45
78898;DHT22;70344;44.736;37.800;2023-07-31T06:03:28;31.61;39.98
78898;DHT22;70344;44.736;37.800;2023-07-31T06:04:36;31.79;38.62
78898;DHT22;70344;44.736;37.800;2023-07-31T06:05:45;31.72;38.65
78898;DHT22;70344;44.736;37.800;2023-07-31T06:06:57;31.74;39.12
78898;DHT22;70344;44.736;37.800;2023-07-31T06:08:01;31.89;38.86
78898;DHT22;70344;44.736;37.800;2023-07-31T06:09:07;31.95;38.39
78898;DHT22;70344;44.736;37.800;2023-07-31T06:10:19;31.99;37.21
78898;DHT22;70344;44.736;37.800;2023-07-31T06:11:25;32.05;37.91
78898;DHT22;70344;44.736;37.800;2023-07-31T06:12:33;32.12;36.94
78898;DHT22;70344;44.736;37.800;2023-07-31T06:13:35;32.01;36.79
78898;DHT22;70344;44.736;37.800;2023-07-31T06:14:40;31.89;37.27
78898;DHT22;70344;44.736;37.800;2023-07-31T06:15:45;31.93;37.52
78898;DHT22;70344;44.736;37.800;2023-07-31T06:16:52;31.99;36.79
78898;DHT22;70344;44.736;37.800;2023-07-31T06:18:02;32.09;36.99
78898;DHT22;70344;44.736;37.800;2023-07-31T06:19:18;32.17;36.47
78898;DHT22;70344;44.736;37.800;2023-07-31T06:20:20;32.30;36.72
78898;DHT22;70344;44.736;37.800;2023-07-31T06:21:38;32.44;36.75
78898;DHT22;70344;44.736;37.800;2023-07-31T06:22:44;32.51;36.90
78898;DHT22;70344;44.736;37.800;2023-07-31T06:23:50;32.64;37.33
78898;DHT22;70344;44.736;37.800;2023-07-31T06:24:56;32.71;36.39
78898;DHT22;70344;44.736;37.800;2023-07-31T06:26:02;32.67;36.36
78898;DHT22;70344;44.736;37.800;2023-07-31T06:27:09;32.61;36.09
78898;DHT22;70344;44.736;37.800;2023-07-31T06:28:16;32.58;36.55
78898;DHT22;70344;44.736;37.800;2023-07-31T06:29:24;32.64;37.07
78898;DHT22;70344;44.736;37.800;2023-07-31T06:30:28;32.69;36.59
78898;DHT22;70344;44.736;37.800;2023-07-31T06:31:31;32.78;37.19
78898;DHT22;70344;44.736;37.800;2023-07-31T06:32:35;32.96;36.16
78898;DHT22;70344;44.736;37.800;2023-07-31T06:33:40;33.02;35.81
78898;DHT22;70344;44.736;37.800;2023-07-31T06:34:42;33.03;35.79
78898;DHT22;70344;44.736;37.800;2023-07-31T06:35:49;32.89;35.86
78898;DHT22;70344;44.736;37.800;2023-07-31T06:36:53;32.82;36.41
78898;DHT22;70344;44.736;37.800;2023-07-31T06:37:57;32.90;36.25
78898;DHT22;70344;44.736;37.800;2023-07-31T06:39:02;32.98;35.98
78898;DHT22;70344;44.736;37.800;2023-07-31T06:40:09;33.09;36.41
78898;DHT22;70344;44.736;37.800;2023-07-31T06:41:15;33.13;36.47
78898;DHT22;70344;44.736;37.800;2023-07-31T06:42:22;33.23;36.05
78898;DHT22;70344;44.736;37.800;2023-07-31T06:43:37;33.29;35.89
78898;DHT22;70344;44.736;37.800;2023-07-31T06:44:44;33.31;35.85
78898;DHT22;70344;44.736;37.800;2023-07-31T06:45:53;33.38;35.81
78898;DHT22;70344;44.736;37.800;2023-07-31T06:47:04;33.51;35.62
78898;DHT22;70344;44.736;37.800;2023-07-31T06:48:14;33.47;35.43
78898;DHT22;70344;44.736;37.800;2023-07-31T06:49:19;33.44;36.27
78898;DHT22;70344;44.736;37.800;2023-07-31T06:50:22;33.46;35.87
78898;DHT22;70344;44.736;37.800;2023-07-31T06:51:26;33.44;35.94
78898;DHT22;70344;44.736;37.800;2023-07-31T06:52:31;33.47;35.55
78898;DHT22;70344;44.736;37.800;2023-07-31T06:53:33;33.44;36.03
78898;DHT22;70344;44.736;37.800;2023-07-31T06:54:36;33.46;35.61
78898;DHT22;70344;44.736;37.800;2023-07-31T06:55:50;33.53;35.68